createdAt,value
2018-06-05T00:02:24.636Z,80.00
2018-06-05T00:04:53.072Z,80.20
2018-06-05T00:07:21.486Z,80.10
2018-06-05T00:09:49.945Z,80.10
2018-06-05T00:12:18.596Z,79.80
2018-06-05T00:14:47.039Z,80.10
2018-06-05T00:17:15.449Z,80.30
2018-06-05T00:19:43.836Z,81.10
2018-06-05T00:22:12.284Z,81.10
2018-06-05T00:24:40.693Z,81.50
2018-06-05T00:27:09.131Z,81.50
2018-06-05T00:29:37.638Z,81.60
2018-06-05T00:32:06.147Z,81.40
2018-06-05T00:34:34.560Z,81.60
2018-06-05T00:39:31.127Z,82.30
2018-06-05T00:41:59.576Z,82.40
2018-06-05T00:44:27.960Z,82.40
2018-06-05T00:46:56.369Z,82.30
2018-06-05T00:49:24.796Z,82.30
2018-06-05T00:52:05.757Z,82.60
2018-06-05T00:54:34.229Z,82.70
2018-06-05T00:57:02.696Z,82.70
2018-06-05T00:59:31.196Z,82.80
2018-06-05T01:02:00.539Z,82.70
2018-06-05T01:04:28.952Z,82.70
2018-06-05T01:06:57.410Z,82.80
2018-06-05T01:09:25.820Z,82.80
2018-06-05T01:11:54.260Z,82.70
2018-06-05T01:14:22.709Z,81.90
2018-06-05T01:16:51.167Z,81.80
2018-06-05T01:19:19.684Z,82.00
2018-06-05T01:21:48.105Z,82.40
2018-06-05T01:24:16.519Z,82.90
2018-06-05T01:26:44.981Z,83.40
2018-06-05T01:29:13.393Z,83.70
2018-06-05T01:31:41.813Z,83.80
2018-06-05T01:34:10.221Z,83.80
2018-06-05T01:36:38.738Z,83.90
2018-06-05T01:39:08.842Z,83.90
2018-06-05T01:41:37.965Z,84.20
2018-06-05T01:44:06.399Z,84.10
2018-06-05T01:46:34.830Z,84.10
2018-06-05T01:49:03.235Z,84.00
2018-06-05T01:51:31.636Z,83.50
2018-06-05T01:54:00.153Z,83.90
2018-06-05T01:56:28.544Z,83.80
2018-06-05T01:58:56.983Z,83.50
2018-06-05T02:01:25.375Z,83.10
2018-06-05T02:03:53.809Z,82.80
2018-06-05T02:06:22.220Z,83.10
2018-06-05T02:08:50.647Z,83.40
2018-06-05T02:11:19.151Z,84.00
2018-06-05T02:13:47.787Z,84.00
2018-06-05T02:16:16.194Z,83.70
2018-06-05T02:18:44.626Z,83.70
2018-06-05T02:21:13.028Z,83.70
2018-06-05T02:23:41.549Z,83.80
2018-06-05T02:26:09.956Z,83.80
2018-06-05T02:28:38.384Z,83.80
2018-06-05T02:31:06.842Z,83.70
2018-06-05T02:33:35.262Z,83.80
2018-06-05T02:36:03.676Z,83.80
2018-06-05T02:38:32.090Z,83.80
2018-06-05T02:41:00.499Z,83.80
2018-06-05T02:43:28.937Z,83.50
2018-06-05T02:45:57.346Z,83.50
2018-06-05T02:48:25.764Z,83.70
2018-06-05T02:50:54.188Z,83.70
2018-06-05T02:55:50.777Z,83.80
2018-06-05T02:58:19.252Z,83.70
2018-06-05T03:00:47.633Z,83.50
2018-06-05T03:03:16.048Z,83.70
2018-06-05T03:05:44.447Z,83.50
2018-06-05T03:08:12.868Z,83.50
2018-06-05T03:10:41.385Z,83.50
2018-06-05T03:13:09.830Z,83.70
2018-06-05T03:15:38.250Z,83.70
2018-06-05T03:18:06.687Z,83.80
2018-06-05T03:20:35.076Z,84.00
2018-06-05T03:23:03.477Z,83.90
2018-06-05T03:25:31.940Z,83.80
2018-06-05T03:28:00.377Z,83.80
2018-06-05T03:30:28.821Z,83.80
2018-06-05T03:32:57.235Z,83.90
2018-06-05T03:35:25.945Z,84.00
2018-06-05T03:37:54.348Z,84.00
2018-06-05T03:40:22.778Z,83.80
2018-06-05T03:42:51.205Z,83.70
2018-06-05T03:45:19.680Z,83.70
2018-06-05T03:47:48.068Z,83.90
2018-06-05T03:50:16.512Z,83.90
2018-06-05T03:52:44.908Z,83.90
2018-06-05T03:55:13.376Z,83.80
2018-06-05T03:57:41.805Z,83.80
2018-06-05T04:00:10.257Z,83.90
2018-06-05T04:02:38.664Z,83.90
2018-06-05T04:05:07.092Z,83.80
2018-06-05T04:07:35.513Z,83.70
2018-06-05T04:10:04.017Z,83.50
2018-06-05T04:12:32.430Z,83.90
2018-06-05T04:15:00.917Z,83.70
2018-06-05T04:17:29.311Z,83.70
2018-06-05T04:19:57.788Z,83.40
2018-06-05T04:24:54.344Z,83.40
2018-06-05T04:27:22.749Z,83.70
2018-06-05T04:29:51.182Z,83.70
2018-06-05T04:32:19.634Z,83.80
2018-06-05T04:34:48.081Z,83.70
2018-06-05T04:37:16.498Z,83.50
2018-06-05T04:39:44.940Z,83.70
2018-06-05T04:42:13.352Z,83.40
2018-06-05T04:44:41.847Z,83.80
2018-06-05T04:47:10.260Z,83.70
2018-06-05T04:49:38.701Z,83.80
2018-06-05T04:52:07.121Z,83.80
2018-06-05T04:54:35.560Z,83.70
2018-06-05T04:57:03.981Z,83.00
2018-06-05T04:59:32.388Z,83.10
2018-06-05T05:02:00.918Z,83.00
2018-06-05T05:04:29.314Z,83.20
2018-06-05T05:06:57.792Z,83.30
2018-06-05T05:09:26.189Z,83.20
2018-06-05T05:11:54.627Z,82.90
2018-06-05T05:14:23.080Z,82.70
2018-06-05T05:16:51.594Z,82.50
2018-06-05T05:19:19.976Z,82.30
2018-06-05T05:21:48.530Z,82.50
2018-06-05T05:24:16.971Z,82.10
2018-06-05T05:26:45.408Z,81.80
2018-06-05T05:29:13.800Z,81.90
2018-06-05T05:31:42.380Z,81.60
2018-06-05T05:34:10.809Z,80.60
2018-06-05T05:36:39.277Z,80.50
2018-06-05T05:39:07.845Z,80.60
2018-06-05T05:41:36.273Z,80.90
2018-06-05T05:44:04.725Z,80.30
2018-06-05T05:46:33.161Z,80.20
2018-06-05T05:49:01.602Z,79.90
2018-06-05T05:51:30.025Z,79.50
2018-06-05T05:53:58.438Z,79.40
2018-06-05T05:56:26.882Z,78.40
2018-06-05T05:58:55.304Z,78.70
2018-06-05T06:01:23.748Z,77.70
2018-06-05T06:03:52.159Z,77.30
2018-06-05T06:06:20.656Z,76.80
2018-06-05T06:08:49.060Z,76.80
2018-06-05T06:11:17.911Z,76.30
2018-06-05T06:13:46.308Z,75.60
2018-06-05T06:16:14.761Z,75.20
2018-06-05T06:18:43.225Z,74.70
2018-06-05T06:21:11.633Z,73.20
2018-06-05T06:23:40.080Z,73.70
2018-06-05T06:26:08.546Z,72.30
2018-06-05T06:28:36.992Z,71.60
2018-06-05T06:31:05.420Z,70.50
2018-06-05T06:33:33.845Z,70.40
2018-06-05T06:36:02.338Z,68.90
2018-06-05T06:38:30.762Z,68.60
2018-06-05T06:40:59.175Z,67.50
2018-06-05T06:43:27.655Z,65.70
2018-06-05T06:45:56.049Z,65.70
2018-06-05T06:48:24.676Z,65.70
2018-06-05T06:50:53.169Z,64.80
2018-06-05T06:53:21.585Z,63.70
2018-06-05T06:55:50.013Z,63.20
2018-06-05T06:58:18.804Z,61.90
2018-06-05T07:00:47.207Z,61.90
2018-06-05T07:03:15.668Z,61.90
2018-06-05T07:05:44.099Z,61.20
2018-06-05T07:08:12.528Z,60.60
2018-06-05T07:10:40.920Z,61.10
2018-06-05T07:13:09.365Z,59.30
2018-06-05T07:15:37.757Z,59.30
2018-06-05T07:18:06.298Z,59.40
2018-06-05T07:20:34.700Z,57.70
2018-06-05T07:23:03.332Z,56.80
2018-06-05T07:25:31.747Z,58.30
2018-06-05T07:28:00.193Z,58.30
2018-06-05T07:30:28.643Z,57.20
2018-06-05T07:32:57.132Z,56.80
2018-06-05T07:35:25.575Z,57.20
2018-06-05T07:37:54.017Z,56.80
2018-06-05T07:40:22.601Z,56.80
2018-06-05T07:42:51.065Z,54.80
2018-06-05T07:45:19.496Z,53.40
2018-06-05T07:47:47.897Z,54.10
2018-06-05T07:50:16.324Z,54.10
2018-06-05T07:52:44.757Z,55.10
2018-06-05T07:55:13.246Z,55.50
2018-06-05T07:57:41.644Z,55.70
2018-06-05T08:00:10.092Z,56.10
2018-06-05T08:02:38.495Z,54.90
2018-06-05T08:05:06.918Z,53.80
2018-06-05T08:07:35.318Z,54.20
2018-06-05T08:10:03.884Z,55.20
2018-06-05T08:12:32.350Z,53.20
2018-06-05T08:15:00.788Z,53.40
2018-06-05T08:17:29.185Z,52.50
2018-06-05T08:19:57.632Z,53.10
2018-06-05T08:22:32.396Z,53.50
2018-06-05T08:25:00.907Z,54.80
2018-06-05T08:27:29.318Z,52.90
2018-06-05T08:29:57.769Z,51.40
2018-06-05T08:32:26.188Z,50.90
2018-06-05T08:34:54.625Z,51.30
2018-06-05T08:37:23.049Z,53.10
2018-06-05T08:39:51.493Z,54.10
2018-06-05T08:42:20.003Z,54.40
2018-06-05T08:44:48.467Z,51.60
2018-06-05T08:47:16.896Z,51.00
2018-06-05T08:49:45.340Z,51.00
2018-06-05T08:52:13.738Z,49.30
2018-06-05T08:54:42.200Z,49.90
2018-06-05T08:57:10.597Z,48.90
2018-06-05T08:59:39.051Z,47.90
2018-06-05T09:02:07.458Z,47.80
2018-06-05T09:04:35.913Z,48.90
2018-06-05T09:07:04.332Z,48.70
2018-06-05T09:09:32.757Z,47.90
2018-06-05T09:12:01.242Z,48.30
2018-06-05T09:14:29.682Z,48.50
2018-06-05T09:16:58.136Z,48.80
2018-06-05T09:19:26.569Z,49.80
2018-06-05T09:21:54.986Z,48.70
2018-06-05T09:24:23.386Z,48.00
2018-06-05T09:29:19.907Z,47.90
2018-06-05T09:31:48.375Z,47.90
2018-06-05T09:34:16.794Z,47.60
2018-06-05T09:36:45.238Z,48.80
2018-06-05T09:39:13.640Z,47.50
2018-06-05T09:44:10.153Z,48.40
2018-06-05T09:46:38.573Z,48.30
2018-06-05T09:49:07.030Z,48.90
2018-06-05T09:51:35.505Z,49.10
2018-06-05T09:54:03.940Z,50.00
2018-06-05T09:56:32.484Z,51.50
2018-06-05T09:59:00.924Z,52.90
2018-06-05T10:01:29.365Z,56.40
2018-06-05T10:03:57.813Z,58.30
2018-06-05T10:06:26.221Z,59.10
2018-06-05T10:08:54.796Z,59.40
2018-06-05T10:11:23.232Z,61.20
2018-06-05T10:13:51.638Z,61.20
2018-06-05T10:16:20.180Z,61.30
2018-06-05T10:18:48.598Z,61.60
2018-06-05T10:21:17.020Z,61.40
2018-06-05T10:23:45.413Z,62.10
2018-06-05T10:26:13.840Z,62.60
2018-06-05T10:28:42.249Z,62.40
2018-06-05T10:31:10.696Z,61.30
2018-06-05T10:33:39.131Z,61.40
2018-06-05T10:36:07.576Z,58.60
2018-06-05T10:38:35.984Z,57.90
2018-06-05T10:41:04.428Z,55.70
2018-06-05T10:43:32.840Z,53.60
2018-06-05T10:46:01.373Z,53.30
2018-06-05T10:48:29.795Z,51.70
2018-06-05T10:50:58.189Z,52.60
2018-06-05T10:53:26.645Z,53.00
2018-06-05T10:55:55.073Z,53.10
2018-06-05T10:58:23.489Z,53.60
2018-06-05T11:00:51.904Z,56.10
2018-06-05T11:03:20.545Z,56.00
2018-06-05T11:05:48.962Z,56.50
2018-06-05T11:08:17.412Z,56.00
2018-06-05T11:13:13.968Z,58.90
2018-06-05T11:15:42.389Z,58.90
2018-06-05T11:18:10.811Z,60.00
2018-06-05T11:20:39.220Z,59.60
2018-06-05T11:23:07.686Z,58.90
2018-06-05T11:25:36.102Z,58.50
2018-06-05T11:28:04.561Z,59.50
2018-06-05T11:30:33.010Z,60.10
2018-06-05T11:33:01.513Z,60.50
2018-06-05T11:35:29.964Z,61.00
2018-06-05T11:37:58.654Z,58.60
2018-06-05T11:40:27.041Z,58.60
2018-06-05T11:42:55.489Z,58.70
2018-06-05T11:47:52.062Z,59.30
2018-06-05T11:50:20.557Z,58.90
2018-06-05T11:52:49.024Z,59.30
2018-06-05T11:55:17.440Z,60.10
2018-06-05T11:57:45.852Z,60.50
2018-06-05T12:00:14.282Z,60.90
2018-06-05T12:02:42.737Z,61.60
2018-06-05T12:05:11.177Z,61.70
2018-06-05T12:07:39.624Z,61.30
2018-06-05T12:10:08.101Z,61.60
2018-06-05T12:12:36.500Z,61.10
2018-06-05T12:17:33.040Z,60.90
2018-06-05T12:20:01.470Z,59.40
2018-06-05T12:22:29.916Z,60.80
2018-06-05T12:24:58.360Z,60.20
2018-06-05T12:27:26.757Z,60.40
2018-06-05T12:29:55.176Z,60.20
2018-06-05T12:32:23.581Z,60.40
2018-06-05T12:34:52.025Z,60.30
2018-06-05T12:37:20.471Z,59.90
2018-06-05T12:39:48.919Z,64.10
2018-06-05T12:42:17.342Z,63.50
2018-06-05T12:44:45.786Z,63.70
2018-06-05T12:47:14.200Z,62.80
2018-06-05T12:49:42.680Z,61.40
2018-06-05T12:52:11.092Z,62.10
2018-06-05T12:54:39.605Z,61.80
2018-06-05T12:59:36.160Z,63.70
2018-06-05T13:02:04.626Z,62.60
2018-06-05T13:04:33.086Z,61.60
2018-06-05T13:07:01.642Z,60.90
2018-06-05T13:09:30.069Z,60.90
2018-06-05T13:11:58.549Z,60.60
2018-06-05T13:14:26.957Z,61.10
2018-06-05T13:16:55.366Z,60.60
2018-06-05T13:19:23.820Z,59.60
2018-06-05T13:21:52.232Z,60.30
2018-06-05T13:24:20.680Z,58.90
2018-06-05T13:26:49.091Z,57.90
2018-06-05T13:29:17.538Z,58.10
2018-06-05T13:31:45.953Z,59.20
2018-06-05T13:34:14.401Z,59.20
2018-06-05T13:36:43.282Z,59.30
2018-06-05T13:39:11.729Z,60.30
2018-06-05T13:41:40.164Z,58.90
2018-06-05T13:44:08.593Z,58.70
2018-06-05T13:46:36.985Z,59.10
2018-06-05T13:49:05.504Z,60.80
2018-06-05T13:51:33.913Z,61.50
2018-06-05T13:54:02.440Z,59.90
2018-06-05T13:56:30.865Z,60.10
2018-06-05T13:58:59.502Z,60.90
2018-06-05T14:01:27.919Z,60.10
2018-06-05T14:03:56.308Z,60.90
2018-06-05T14:06:24.760Z,59.20
2018-06-05T14:08:53.259Z,60.60
2018-06-05T14:11:21.693Z,59.30
2018-06-05T14:13:50.109Z,58.70
2018-06-05T14:16:18.572Z,59.00
2018-06-05T14:18:47.089Z,58.70
2018-06-05T14:21:15.510Z,59.20
2018-06-05T14:26:12.029Z,57.50
2018-06-05T14:28:40.413Z,58.10
2018-06-05T14:31:08.872Z,57.50
2018-06-05T14:33:37.276Z,58.20
2018-06-05T14:36:05.766Z,57.30
2018-06-05T14:38:34.188Z,57.30
2018-06-05T14:41:02.675Z,57.40
2018-06-05T14:43:31.084Z,57.00
2018-06-05T14:45:59.535Z,57.70
2018-06-05T14:48:27.947Z,56.80
2018-06-05T14:50:56.368Z,57.60
2018-06-05T14:54:04.241Z,59.10
2018-06-05T14:56:32.709Z,60.20
2018-06-05T14:59:01.108Z,59.90
2018-06-05T15:01:29.560Z,58.90
2018-06-05T15:03:57.962Z,58.70
2018-06-05T15:06:26.400Z,59.30
2018-06-05T15:08:54.801Z,59.40
2018-06-05T15:11:23.277Z,60.30
2018-06-05T15:13:51.704Z,60.10
2018-06-05T15:16:20.157Z,60.20
2018-06-05T15:18:48.553Z,58.30
2018-06-05T15:21:17.016Z,59.00
2018-06-05T15:23:45.432Z,59.20
2018-06-05T15:26:13.861Z,59.80
2018-06-05T15:28:42.325Z,60.80
2018-06-05T15:31:10.757Z,59.90
2018-06-05T15:33:39.193Z,60.20
2018-06-05T15:36:07.646Z,59.90
2018-06-05T15:38:36.058Z,60.40
2018-06-05T15:41:04.554Z,59.50
2018-06-05T15:43:32.978Z,59.90
2018-06-05T15:46:01.391Z,59.80
2018-06-05T15:48:29.818Z,60.50
2018-06-05T15:50:58.228Z,60.40
2018-06-05T15:53:26.676Z,60.90
2018-06-05T15:55:55.128Z,60.90
2018-06-05T15:58:23.666Z,61.20
2018-06-05T16:00:52.070Z,61.70
2018-06-05T16:03:20.580Z,60.60
2018-06-05T16:05:49.040Z,60.20
2018-06-05T16:08:17.460Z,59.50
2018-06-05T16:10:46.053Z,58.60
2018-06-05T16:13:14.498Z,58.30
2018-06-05T16:15:42.905Z,59.60
2018-06-05T16:18:11.385Z,59.80
2018-06-05T16:20:39.806Z,59.90
2018-06-05T16:23:08.247Z,59.80
2018-06-05T16:25:36.655Z,60.20
2018-06-05T16:28:05.369Z,60.20
2018-06-05T16:30:33.798Z,60.20
2018-06-05T16:33:02.220Z,59.40
2018-06-05T16:35:30.781Z,59.10
2018-06-05T16:37:59.216Z,59.00
2018-06-05T16:40:27.845Z,59.30
2018-06-05T16:42:56.309Z,60.40
2018-06-05T16:45:24.748Z,60.60
2018-06-05T16:47:53.194Z,59.20
2018-06-05T16:50:21.602Z,59.20
2018-06-05T16:52:50.133Z,59.00
2018-06-05T16:55:18.578Z,59.30
2018-06-05T16:57:46.995Z,59.10
2018-06-05T17:00:15.408Z,59.50
2018-06-05T17:02:43.906Z,59.90
2018-06-05T17:05:12.321Z,59.30
2018-06-05T17:07:40.757Z,59.80
2018-06-05T17:10:09.422Z,60.10
2018-06-05T17:12:37.881Z,59.90
2018-06-05T17:15:06.285Z,60.10
2018-06-05T17:17:34.694Z,59.20
2018-06-05T17:20:03.225Z,59.60
2018-06-05T17:22:31.764Z,59.90
2018-06-05T17:25:00.222Z,59.90
2018-06-05T17:27:28.693Z,59.80
2018-06-05T17:29:57.080Z,59.90
2018-06-05T17:32:25.487Z,60.10
2018-06-05T17:34:53.933Z,59.60
2018-06-05T17:37:22.347Z,60.00
2018-06-05T17:39:50.800Z,60.50
2018-06-05T17:42:19.344Z,60.00
2018-06-05T17:44:47.767Z,60.10
2018-06-05T17:47:16.167Z,60.50
2018-06-05T17:49:44.622Z,60.40
2018-06-05T17:52:13.033Z,61.00
2018-06-05T17:54:41.526Z,61.10
2018-06-05T17:57:10.010Z,61.40
2018-06-05T17:59:38.444Z,61.60
2018-06-05T18:02:07.092Z,61.40
2018-06-05T18:04:35.515Z,61.40
2018-06-05T18:07:03.922Z,61.20
2018-06-05T18:09:32.388Z,61.70
2018-06-05T18:12:00.801Z,62.10
2018-06-05T18:16:57.406Z,61.90
2018-06-05T18:19:25.853Z,62.60
2018-06-05T18:21:54.268Z,63.10
2018-06-05T18:24:22.701Z,63.70
2018-06-05T18:26:52.277Z,63.70
2018-06-05T18:29:20.739Z,62.90
2018-06-05T18:31:49.136Z,63.90
2018-06-05T18:34:17.594Z,63.90
2018-06-05T18:36:45.991Z,64.10
2018-06-05T18:39:14.402Z,63.90
2018-06-05T18:41:42.832Z,64.20
2018-06-05T18:44:11.261Z,65.30
2018-06-05T18:46:39.705Z,65.70
2018-06-05T18:49:08.111Z,65.80
2018-06-05T18:51:36.556Z,66.20
2018-06-05T18:54:05.018Z,66.20
2018-06-05T18:56:33.468Z,66.50
2018-06-05T18:59:01.881Z,66.70
2018-06-05T19:01:30.323Z,67.10
2018-06-05T19:03:58.780Z,67.40
2018-06-05T19:06:27.196Z,67.80
2018-06-05T19:08:55.688Z,67.60
2018-06-05T19:11:24.119Z,67.50
2018-06-05T19:13:52.615Z,67.50
2018-06-05T19:16:21.065Z,67.30
2018-06-05T19:18:49.450Z,67.40
2018-06-05T19:21:17.893Z,67.60
2018-06-05T19:23:46.303Z,67.70
2018-06-05T19:26:14.753Z,67.80
2018-06-05T19:28:43.150Z,67.70
2018-06-05T19:31:11.624Z,67.70
2018-06-05T19:33:40.051Z,68.10
2018-06-05T19:36:08.513Z,68.60
2018-06-05T19:38:36.923Z,68.70
2018-06-05T19:41:05.447Z,69.10
2018-06-05T19:43:33.862Z,69.40
2018-06-05T19:46:02.303Z,69.60
2018-06-05T19:48:30.717Z,69.80
2018-06-05T19:50:59.165Z,69.80
2018-06-05T19:53:27.578Z,69.80
2018-06-05T19:55:56.079Z,70.00
2018-06-05T19:58:24.470Z,70.30
2018-06-05T20:00:52.969Z,70.80
2018-06-05T20:03:21.405Z,71.10
2018-06-05T20:05:49.962Z,71.20
2018-06-05T20:08:18.405Z,71.50
2018-06-05T20:10:46.848Z,71.60
2018-06-05T20:13:15.260Z,71.70
2018-06-05T20:15:43.654Z,71.70
2018-06-05T20:18:12.116Z,72.00
2018-06-05T20:20:40.518Z,72.30
2018-06-05T20:23:08.960Z,72.40
2018-06-05T20:25:37.363Z,72.50
2018-06-05T20:28:05.805Z,72.40
2018-06-05T20:30:34.204Z,72.60
2018-06-05T20:33:02.629Z,72.50
2018-06-05T20:37:59.197Z,72.80
2018-06-05T20:40:27.605Z,73.20
2018-06-05T20:42:56.082Z,73.10
2018-06-05T20:45:24.514Z,73.10
2018-06-05T20:47:52.929Z,73.10
2018-06-05T20:50:21.337Z,73.30
2018-06-05T20:52:49.784Z,73.30
2018-06-05T20:55:18.219Z,74.20
2018-06-05T20:57:46.653Z,74.70
2018-06-05T21:00:15.103Z,74.80
2018-06-05T21:02:43.579Z,74.70
2018-06-05T21:05:12.013Z,74.80
2018-06-05T21:07:40.437Z,74.70
2018-06-05T21:10:08.878Z,74.70
2018-06-05T21:12:37.326Z,74.60
2018-06-05T21:15:05.776Z,74.90
2018-06-05T21:17:34.220Z,75.30
2018-06-05T21:20:02.642Z,75.40
2018-06-05T21:22:31.082Z,75.40
2018-06-05T21:24:59.583Z,75.50
2018-06-05T21:27:28.057Z,75.80
2018-06-05T21:29:56.475Z,75.80
2018-06-05T21:32:24.909Z,76.30
2018-06-05T21:34:53.332Z,76.30
2018-06-05T21:37:21.765Z,76.70
2018-06-05T21:39:50.170Z,76.50
2018-06-05T21:42:18.565Z,76.60
2018-06-05T21:44:47.007Z,76.70
2018-06-05T21:47:15.416Z,76.80
2018-06-05T21:49:43.864Z,77.00
2018-06-05T21:52:12.290Z,77.30
2018-06-05T21:54:40.747Z,77.40
2018-06-05T21:57:09.155Z,77.50
2018-06-05T21:59:37.588Z,77.70
2018-06-05T22:02:06.004Z,77.60
2018-06-05T22:04:34.523Z,78.30
2018-06-05T22:07:02.929Z,78.40
2018-06-05T22:09:31.354Z,78.50
2018-06-05T22:11:59.767Z,78.70
2018-06-05T22:14:28.181Z,79.10
2018-06-05T22:16:56.595Z,79.00
2018-06-05T22:19:25.041Z,79.10
2018-06-05T22:21:53.492Z,79.10
2018-06-05T22:24:21.930Z,79.10
2018-06-05T22:26:50.346Z,79.20
2018-06-05T22:29:18.782Z,79.00
2018-06-05T22:31:47.193Z,79.10
2018-06-05T22:34:15.656Z,79.10
2018-06-05T22:39:12.309Z,79.40
2018-06-05T22:41:40.825Z,79.60
2018-06-05T22:46:37.508Z,79.90
2018-06-05T22:49:05.948Z,79.90
2018-06-05T22:51:35.013Z,80.20
2018-06-05T22:54:03.470Z,80.30
2018-06-05T22:56:31.915Z,80.30
2018-06-05T22:59:00.341Z,80.20
2018-06-05T23:01:28.751Z,80.20
2018-06-05T23:03:57.195Z,80.40
2018-06-05T23:06:25.591Z,80.40
2018-06-05T23:08:54.062Z,80.20
2018-06-05T23:11:22.457Z,80.10
2018-06-05T23:13:50.876Z,80.60
2018-06-05T23:16:19.293Z,81.10
2018-06-05T23:18:47.722Z,81.20
2018-06-05T23:21:16.137Z,81.10
2018-06-05T23:23:44.601Z,81.00
2018-06-05T23:26:13.178Z,81.00
2018-06-05T23:28:41.611Z,81.00
2018-06-05T23:31:10.045Z,81.10
2018-06-05T23:33:38.462Z,81.20
2018-06-05T23:36:07.013Z,81.10
2018-06-05T23:38:35.412Z,81.10
2018-06-05T23:43:32.003Z,81.20
2018-06-05T23:46:00.489Z,81.10
2018-06-05T23:48:28.906Z,81.20
2018-06-05T23:50:57.342Z,81.30
2018-06-05T23:53:25.746Z,81.30
2018-06-05T23:55:54.252Z,81.20
2018-06-05T23:58:22.666Z,81.20
